createdAt,value
2022-12-27T00:04:57.671Z,98009.78
2022-12-27T00:09:59.359Z,98019.66
2022-12-27T00:15:01.039Z,98027.75
2022-12-27T00:20:10.639Z,98052.00
2022-12-27T00:25:13.285Z,98052.59
2022-12-27T00:30:15.629Z,98074.28
2022-12-27T00:35:17.334Z,98076.78
2022-12-27T00:40:18.933Z,98080.38
2022-12-27T00:45:20.512Z,98089.22
2022-12-27T00:50:22.122Z,98103.41
2022-12-27T00:55:23.835Z,98114.06
2022-12-27T01:00:25.441Z,98123.75
2022-12-27T01:05:27.026Z,98132.31
2022-12-27T01:10:28.636Z,98150.56
2022-12-27T01:15:30.395Z,98160.16
2022-12-27T01:20:32.024Z,98169.50
2022-12-27T01:25:33.657Z,98183.16
2022-12-27T01:30:35.424Z,98189.00
2022-12-27T01:35:37.569Z,98191.50
2022-12-27T01:40:39.359Z,98207.03
2022-12-27T01:45:41.052Z,98217.53
2022-12-27T01:50:48.664Z,98213.44
2022-12-27T01:55:58.851Z,98223.00
2022-12-27T02:01:00.605Z,98227.59
2022-12-27T02:06:04.415Z,98246.03
2022-12-27T02:11:07.713Z,98248.59
2022-12-27T02:16:18.905Z,98275.56
2022-12-27T02:21:38.843Z,98279.44
2022-12-27T02:26:52.147Z,98281.53
2022-12-27T02:32:12.256Z,98292.72
2022-12-27T02:37:14.423Z,98297.47
2022-12-27T02:42:36.789Z,98308.38
2022-12-27T02:47:57.472Z,98306.47
2022-12-27T02:53:28.108Z,98318.47
2022-12-27T02:59:11.287Z,98317.03
2022-12-27T03:04:26.205Z,98331.94
2022-12-27T03:09:46.441Z,98336.75
2022-12-27T03:15:08.751Z,98341.69
2022-12-27T03:20:33.942Z,98351.44
2022-12-27T03:25:37.201Z,98359.56
2022-12-27T03:30:59.445Z,98365.59
2022-12-27T03:36:42.203Z,98356.59
2022-12-27T03:42:08.777Z,98365.50
2022-12-27T03:47:35.069Z,98374.44
2022-12-27T03:52:48.560Z,98382.91
2022-12-27T03:57:50.736Z,98382.59
2022-12-27T04:02:52.479Z,98390.16
2022-12-27T04:08:12.717Z,98404.34
2022-12-27T04:13:33.011Z,98408.88
2022-12-27T04:18:53.232Z,98410.50
2022-12-27T04:24:13.539Z,98415.22
2022-12-27T04:29:33.634Z,98412.28
2022-12-27T04:34:42.283Z,98408.41
2022-12-27T04:40:04.054Z,98415.09
2022-12-27T04:45:24.823Z,98408.03
2022-12-27T04:50:48.725Z,98396.03
2022-12-27T04:55:50.321Z,98416.63
2022-12-27T05:01:14.352Z,98417.91
2022-12-27T05:06:17.329Z,98404.81
2022-12-27T05:11:37.497Z,98416.22
2022-12-27T05:16:44.016Z,98421.63
2022-12-27T05:22:04.170Z,98424.19
2022-12-27T05:27:05.764Z,98431.94
2022-12-27T05:32:12.782Z,98425.81
2022-12-27T05:37:14.987Z,98421.09
2022-12-27T05:42:16.652Z,98420.19
2022-12-27T05:47:18.265Z,98426.94
2022-12-27T05:52:19.895Z,98423.53
2022-12-27T05:57:21.521Z,98438.69
2022-12-27T06:02:23.270Z,98440.66
2022-12-27T06:07:24.959Z,98445.97
2022-12-27T06:12:27.775Z,98452.72
2022-12-27T06:17:29.424Z,98461.75
2022-12-27T06:22:30.990Z,98465.22
2022-12-27T06:27:32.588Z,98467.72
2022-12-27T06:32:35.355Z,98474.66
2022-12-27T06:37:36.930Z,98475.03
2022-12-27T06:42:38.610Z,98480.56
2022-12-27T06:47:40.219Z,98482.53
2022-12-27T06:52:41.820Z,98490.84
2022-12-27T06:57:43.496Z,98500.59
2022-12-27T07:02:45.138Z,98503.88
2022-12-27T07:07:46.961Z,98499.63
2022-12-27T07:12:48.580Z,98508.69
2022-12-27T07:17:50.408Z,98526.47
2022-12-27T07:22:52.011Z,98532.00
2022-12-27T07:27:54.383Z,98546.69
2022-12-27T07:32:56.074Z,98547.31
2022-12-27T07:37:57.741Z,98550.09
2022-12-27T07:42:59.315Z,98557.41
2022-12-27T07:48:00.937Z,98555.13
2022-12-27T07:53:02.663Z,98569.84
2022-12-27T07:58:04.322Z,98559.84
2022-12-27T08:03:05.979Z,98575.78
2022-12-27T08:08:09.113Z,98561.09
2022-12-27T08:13:10.761Z,98572.91
2022-12-27T08:18:12.337Z,98573.41
2022-12-27T08:23:14.047Z,98572.69
2022-12-27T08:28:17.697Z,98570.84
2022-12-27T08:33:20.027Z,98586.22
2022-12-27T08:38:21.861Z,98587.50
2022-12-27T08:43:23.445Z,98582.66
2022-12-27T08:48:25.116Z,98583.69
2022-12-27T08:53:26.714Z,98587.56
2022-12-27T08:58:28.346Z,98591.19
2022-12-27T09:03:29.975Z,98592.00
2022-12-27T09:08:31.609Z,98586.94
2022-12-27T09:13:33.692Z,98587.56
2022-12-27T09:18:35.903Z,98588.91
2022-12-27T09:23:38.404Z,98597.22
2022-12-27T09:28:41.311Z,98608.00
2022-12-27T09:33:43.127Z,98595.72
2022-12-27T09:38:45.590Z,98599.16
2022-12-27T09:44:05.707Z,98596.88
2022-12-27T09:49:14.093Z,98575.56
2022-12-27T09:54:23.961Z,98578.84
2022-12-27T09:59:40.345Z,98581.97
2022-12-27T10:05:10.301Z,98592.38
2022-12-27T10:10:14.825Z,98581.19
2022-12-27T10:15:41.368Z,98590.53
2022-12-27T10:20:58.120Z,98588.16
2022-12-27T10:26:07.574Z,98597.59
2022-12-27T10:31:16.013Z,98593.66
2022-12-27T10:36:28.449Z,98601.44
2022-12-27T10:41:33.522Z,98598.34
2022-12-27T10:46:35.400Z,98586.97
2022-12-27T10:51:41.400Z,98609.50
2022-12-27T10:56:45.165Z,98603.81
2022-12-27T11:01:50.088Z,98609.91
2022-12-27T11:07:04.452Z,98597.63
2022-12-27T11:12:20.920Z,98591.66
2022-12-27T11:17:43.920Z,98603.00
2022-12-27T11:22:50.535Z,98600.06
2022-12-27T11:27:55.750Z,98600.78
2022-12-27T11:33:06.326Z,98607.81
2022-12-27T11:38:24.666Z,98593.22
2022-12-27T11:43:32.996Z,98586.81
2022-12-27T11:48:42.456Z,98579.00
2022-12-27T11:54:07.908Z,98594.44
2022-12-27T11:59:28.300Z,98597.63
2022-12-27T12:05:03.333Z,98605.03
2022-12-27T12:10:32.742Z,98607.34
2022-12-27T12:15:59.496Z,98607.00
2022-12-27T12:21:26.032Z,98605.22
2022-12-27T12:26:58.602Z,98601.25
2022-12-27T12:32:33.811Z,98590.38
2022-12-27T12:38:01.722Z,98592.47
2022-12-27T12:43:37.671Z,98585.44
2022-12-27T12:48:51.683Z,98599.50
2022-12-27T12:54:05.739Z,98592.09
2022-12-27T12:59:29.318Z,98597.72
2022-12-27T13:04:40.403Z,98609.78
2022-12-27T13:09:53.135Z,98607.44
2022-12-27T13:15:07.165Z,98604.47
2022-12-27T13:20:43.731Z,98600.97
2022-12-27T13:26:00.618Z,98597.66
2022-12-27T13:31:23.242Z,98599.56
2022-12-27T13:36:35.945Z,98609.75
2022-12-27T13:42:19.395Z,98606.47
2022-12-27T13:47:41.529Z,98599.13
2022-12-27T13:53:14.022Z,98600.63
2022-12-27T13:58:40.112Z,98607.69
2022-12-27T14:04:17.920Z,98612.47
2022-12-27T14:09:58.231Z,98616.56
2022-12-27T14:15:04.487Z,98616.59
2022-12-27T14:20:18.907Z,98624.06
2022-12-27T14:25:51.988Z,98623.94
2022-12-27T14:31:27.941Z,98634.25
2022-12-27T14:36:35.819Z,98651.09
2022-12-27T14:42:02.477Z,98654.84
2022-12-27T14:47:25.282Z,98651.25
2022-12-27T14:52:48.457Z,98650.44
2022-12-27T14:58:11.922Z,98642.22
2022-12-27T15:03:44.689Z,98640.00
2022-12-27T15:09:09.386Z,98649.13
2022-12-27T15:14:17.654Z,98652.28
2022-12-27T15:19:44.751Z,98654.84
2022-12-27T15:24:52.698Z,98644.91
2022-12-27T15:30:19.328Z,98637.63
2022-12-27T15:35:51.997Z,98623.22
2022-12-27T15:41:09.012Z,98624.13
2022-12-27T15:46:23.269Z,98621.41
2022-12-27T15:51:40.752Z,98635.63
2022-12-27T15:56:58.190Z,98635.16
2022-12-27T16:02:27.344Z,98631.28
2022-12-27T16:07:36.681Z,98625.72
2022-12-27T16:12:39.701Z,98626.50
2022-12-27T16:17:55.976Z,98626.63
2022-12-27T16:23:02.276Z,98633.75
2022-12-27T16:28:16.312Z,98633.97
2022-12-27T16:33:27.263Z,98643.41
2022-12-27T16:38:30.825Z,98645.78
2022-12-27T16:43:48.173Z,98649.34
2022-12-27T16:49:25.458Z,98647.41
2022-12-27T16:54:47.962Z,98645.81
2022-12-27T17:00:05.504Z,98646.28
2022-12-27T17:05:36.188Z,98658.59
2022-12-27T17:10:51.639Z,98652.84
2022-12-27T17:15:56.734Z,98655.69
2022-12-27T17:21:07.821Z,98663.53
2022-12-27T17:26:24.264Z,98658.06
2022-12-27T17:31:46.986Z,98664.72
2022-12-27T17:37:03.865Z,98664.72
2022-12-27T17:42:40.317Z,98666.47
2022-12-27T17:48:00.897Z,98654.31
2022-12-27T17:53:30.459Z,98654.09
2022-12-27T17:58:34.929Z,98650.00
2022-12-27T18:03:42.178Z,98648.94
2022-12-27T18:08:47.876Z,98640.38
2022-12-27T18:13:53.853Z,98636.25
2022-12-27T18:18:59.941Z,98643.91
2022-12-27T18:24:01.905Z,98651.47
2022-12-27T18:29:05.300Z,98640.19
2022-12-27T18:34:20.789Z,98648.56
2022-12-27T18:39:33.708Z,98640.19
2022-12-27T18:44:47.305Z,98627.56
2022-12-27T18:50:01.095Z,98627.16
2022-12-27T18:55:17.591Z,98626.84
2022-12-27T19:00:25.733Z,98622.00
2022-12-27T19:05:29.335Z,98612.63
2022-12-27T19:10:33.590Z,98612.00
2022-12-27T19:15:44.092Z,98612.13
2022-12-27T19:20:54.312Z,98623.53
2022-12-27T19:26:03.019Z,98617.03
2022-12-27T19:31:09.668Z,98610.91
2022-12-27T19:36:11.664Z,98609.88
2022-12-27T19:41:16.573Z,98610.34
2022-12-27T19:46:19.344Z,98604.91
2022-12-27T19:51:21.360Z,98610.31
2022-12-27T19:56:23.230Z,98603.00
2022-12-27T20:01:25.404Z,98596.66
2022-12-27T20:06:28.465Z,98589.59
2022-12-27T20:11:30.315Z,98596.66
2022-12-27T20:16:32.245Z,98601.41
2022-12-27T20:21:34.075Z,98590.66
2022-12-27T20:26:35.871Z,98589.84
2022-12-27T20:31:44.502Z,98590.34
2022-12-27T20:36:46.650Z,98583.53
2022-12-27T20:41:48.473Z,98593.16
2022-12-27T20:46:50.777Z,98583.78
2022-12-27T20:51:52.870Z,98570.53
2022-12-27T20:56:54.663Z,98575.75
2022-12-27T21:01:57.431Z,98567.78
2022-12-27T21:06:59.357Z,98561.34
2022-12-27T21:12:01.168Z,98558.69
2022-12-27T21:17:03.376Z,98560.97
2022-12-27T21:22:05.232Z,98566.72
2022-12-27T21:27:07.025Z,98566.28
2022-12-27T21:32:08.827Z,98560.28
2022-12-27T21:37:13.562Z,98556.56
2022-12-27T21:42:15.591Z,98559.72
2022-12-27T21:47:17.409Z,98553.38
2022-12-27T21:52:19.175Z,98545.78
2022-12-27T21:57:20.959Z,98539.81
2022-12-27T22:02:22.868Z,98541.84
2022-12-27T22:07:24.793Z,98546.13
2022-12-27T22:12:26.598Z,98546.50
2022-12-27T22:17:28.376Z,98545.66
2022-12-27T22:22:32.317Z,98540.41
2022-12-27T22:27:34.146Z,98548.38
2022-12-27T22:32:35.916Z,98540.66
2022-12-27T22:37:37.776Z,98534.47
2022-12-27T22:42:39.450Z,98529.22
2022-12-27T22:47:41.096Z,98519.16
2022-12-27T22:52:47.132Z,98514.84
2022-12-27T22:57:48.721Z,98509.25
2022-12-27T23:02:50.340Z,98509.03
2022-12-27T23:08:06.057Z,98490.22
2022-12-27T23:13:10.717Z,98476.56
2022-12-27T23:18:12.321Z,98463.56
2022-12-27T23:23:14.411Z,98457.59
2022-12-27T23:28:16.009Z,98445.44
2022-12-27T23:33:17.625Z,98448.69
2022-12-27T23:38:19.241Z,98442.38
2022-12-27T23:43:50.984Z,98441.50
2022-12-27T23:48:43.666Z,98427.03
2022-12-27T23:53:45.328Z,98442.84
2022-12-27T23:58:48.860Z,98426.25
